createdAt,value
2018-09-19T00:01:04.534Z,17.50
2018-09-19T00:03:33.109Z,17.50
2018-09-19T00:06:01.719Z,17.40
2018-09-19T00:08:30.305Z,17.40
2018-09-19T00:10:58.903Z,17.30
2018-09-19T00:13:27.507Z,17.20
2018-09-19T00:15:56.113Z,17.20
2018-09-19T00:18:24.678Z,17.00
2018-09-19T00:20:53.277Z,17.10
2018-09-19T00:23:21.869Z,17.00
2018-09-19T00:25:50.561Z,17.10
2018-09-19T00:28:19.151Z,17.00
2018-09-19T00:30:47.776Z,17.00
2018-09-19T00:33:16.357Z,16.90
2018-09-19T00:35:44.955Z,16.80
2018-09-19T00:38:13.573Z,16.80
2018-09-19T00:40:42.204Z,16.80
2018-09-19T00:43:10.840Z,16.70
2018-09-19T00:45:39.434Z,16.70
2018-09-19T00:48:09.037Z,16.70
2018-09-19T00:50:37.721Z,16.70
2018-09-19T00:53:06.365Z,16.70
2018-09-19T00:55:35.178Z,16.70
2018-09-19T00:58:03.790Z,16.70
2018-09-19T01:00:32.444Z,16.60
2018-09-19T01:03:01.043Z,16.60
2018-09-19T01:05:29.654Z,16.70
2018-09-19T01:07:58.228Z,16.60
2018-09-19T01:10:26.850Z,16.50
2018-09-19T01:12:55.473Z,16.50
2018-09-19T01:15:24.260Z,16.60
2018-09-19T01:17:52.824Z,16.50
2018-09-19T01:20:21.414Z,16.50
2018-09-19T01:22:50.000Z,16.50
2018-09-19T01:25:18.689Z,16.40
2018-09-19T01:27:47.272Z,16.40
2018-09-19T01:30:15.870Z,16.30
2018-09-19T01:32:44.438Z,16.20
2018-09-19T01:35:13.011Z,16.30
2018-09-19T01:37:41.627Z,16.30
2018-09-19T01:40:10.302Z,16.20
2018-09-19T01:42:38.898Z,16.20
2018-09-19T01:45:07.539Z,16.10
2018-09-19T01:47:36.126Z,16.20
2018-09-19T01:50:04.860Z,16.10
2018-09-19T01:52:33.449Z,16.00
2018-09-19T01:55:02.010Z,16.00
2018-09-19T01:57:30.607Z,16.00
2018-09-19T01:59:59.949Z,16.00
2018-09-19T02:02:28.540Z,16.10
2018-09-19T02:04:57.116Z,16.00
2018-09-19T02:07:25.705Z,16.00
2018-09-19T02:09:54.275Z,16.00
2018-09-19T02:12:23.090Z,16.00
2018-09-19T02:14:51.645Z,16.00
2018-09-19T02:17:20.241Z,16.00
2018-09-19T02:19:48.821Z,16.00
2018-09-19T02:22:17.419Z,16.00
2018-09-19T02:24:45.988Z,15.90
2018-09-19T02:27:14.581Z,15.90
2018-09-19T02:29:43.141Z,15.80
2018-09-19T02:32:11.740Z,15.80
2018-09-19T02:34:40.313Z,15.80
2018-09-19T02:37:08.911Z,15.70
2018-09-19T02:39:37.525Z,15.80
2018-09-19T02:42:06.397Z,15.70
2018-09-19T02:44:34.978Z,15.80
2018-09-19T02:47:03.596Z,15.80
2018-09-19T02:49:32.183Z,15.70
2018-09-19T02:52:00.768Z,15.70
2018-09-19T02:54:30.495Z,15.60
2018-09-19T02:56:59.164Z,15.60
2018-09-19T02:59:28.076Z,15.60
2018-09-19T03:01:56.778Z,15.50
2018-09-19T03:04:25.368Z,15.50
2018-09-19T03:06:53.931Z,15.50
2018-09-19T03:09:22.516Z,15.50
2018-09-19T03:11:51.092Z,15.50
2018-09-19T03:14:19.696Z,15.40
2018-09-19T03:16:48.274Z,15.50
2018-09-19T03:19:16.902Z,15.50
2018-09-19T03:21:45.501Z,15.40
2018-09-19T03:24:14.089Z,15.50
2018-09-19T03:26:42.657Z,15.40
2018-09-19T03:29:11.260Z,15.40
2018-09-19T03:31:39.837Z,15.40
2018-09-19T03:34:08.648Z,15.40
2018-09-19T03:36:37.238Z,15.30
2018-09-19T03:39:08.340Z,15.30
2018-09-19T03:41:37.116Z,15.30
2018-09-19T03:44:06.142Z,15.30
2018-09-19T03:46:34.764Z,15.30
2018-09-19T03:49:03.356Z,15.30
2018-09-19T03:51:31.951Z,15.30
2018-09-19T03:54:00.532Z,15.30
2018-09-19T03:56:29.116Z,15.30
2018-09-19T03:58:57.716Z,15.30
2018-09-19T04:01:26.293Z,15.30
2018-09-19T04:03:54.931Z,15.30
2018-09-19T04:06:23.510Z,15.30
2018-09-19T04:08:52.144Z,15.20
2018-09-19T04:11:20.719Z,15.10
2018-09-19T04:13:49.300Z,15.10
2018-09-19T04:16:17.899Z,15.20
2018-09-19T04:18:46.497Z,15.20
2018-09-19T04:21:15.097Z,15.20
2018-09-19T04:23:43.776Z,15.10
2018-09-19T04:26:12.410Z,15.20
2018-09-19T04:28:44.659Z,15.20
2018-09-19T04:31:23.816Z,15.10
2018-09-19T04:33:56.562Z,15.10
2018-09-19T04:36:25.168Z,15.20
2018-09-19T04:38:53.955Z,15.20
2018-09-19T04:41:22.568Z,15.20
2018-09-19T04:43:51.138Z,15.10
2018-09-19T04:46:19.738Z,15.10
2018-09-19T04:48:48.360Z,15.00
2018-09-19T04:51:16.954Z,15.00
2018-09-19T04:53:45.527Z,15.00
2018-09-19T04:56:14.124Z,15.00
2018-09-19T04:58:42.686Z,15.00
2018-09-19T05:01:11.283Z,15.10
2018-09-19T05:03:39.861Z,15.10
2018-09-19T05:06:08.478Z,15.00
2018-09-19T05:08:37.080Z,15.00
2018-09-19T05:11:05.688Z,15.00
2018-09-19T05:13:34.253Z,15.00
2018-09-19T05:16:02.851Z,14.90
2018-09-19T05:18:31.416Z,14.90
2018-09-19T05:21:00.019Z,15.00
2018-09-19T05:23:28.586Z,15.00
2018-09-19T05:25:57.189Z,15.00
2018-09-19T05:28:25.761Z,14.90
2018-09-19T05:30:54.384Z,14.90
2018-09-19T05:33:22.966Z,14.90
2018-09-19T05:35:51.566Z,14.90
2018-09-19T05:38:20.142Z,14.90
2018-09-19T05:40:48.753Z,14.90
2018-09-19T05:43:17.341Z,15.00
2018-09-19T05:45:45.908Z,15.10
2018-09-19T05:48:14.494Z,15.10
2018-09-19T05:50:43.080Z,15.10
2018-09-19T05:53:11.806Z,15.10
2018-09-19T05:55:40.382Z,15.20
2018-09-19T05:58:09.076Z,15.10
2018-09-19T06:00:37.673Z,15.20
2018-09-19T06:03:06.330Z,15.20
2018-09-19T06:05:35.009Z,15.20
2018-09-19T06:08:03.603Z,15.30
2018-09-19T06:10:32.161Z,15.40
2018-09-19T06:13:00.797Z,15.40
2018-09-19T06:15:29.371Z,15.50
2018-09-19T06:17:57.957Z,15.50
2018-09-19T06:20:26.528Z,15.50
2018-09-19T06:22:55.126Z,15.60
2018-09-19T06:25:23.709Z,15.50
2018-09-19T06:27:52.307Z,15.60
2018-09-19T06:30:20.900Z,15.80
2018-09-19T06:32:49.573Z,16.20
2018-09-19T06:35:18.135Z,16.60
2018-09-19T06:37:46.903Z,17.10
2018-09-19T06:40:15.626Z,17.70
2018-09-19T06:42:44.102Z,18.40
2018-09-19T06:45:12.676Z,18.90
2018-09-19T06:47:41.266Z,19.30
2018-09-19T06:50:10.465Z,19.80
2018-09-19T06:52:39.049Z,20.30
2018-09-19T06:55:07.690Z,21.10
2018-09-19T06:57:36.292Z,21.60
2018-09-19T07:00:05.571Z,22.10
2018-09-19T07:02:34.155Z,22.60
2018-09-19T07:05:02.749Z,23.00
2018-09-19T07:07:31.331Z,23.40
2018-09-19T07:09:59.946Z,23.90
2018-09-19T07:12:28.732Z,24.30
2018-09-19T07:14:57.319Z,24.80
2018-09-19T07:17:25.887Z,25.10
2018-09-19T07:19:54.505Z,25.20
2018-09-19T07:22:23.100Z,25.40
2018-09-19T07:24:51.704Z,25.90
2018-09-19T07:27:20.341Z,26.30
2018-09-19T07:29:48.967Z,27.00
2018-09-19T07:32:17.550Z,27.50
2018-09-19T07:34:46.165Z,27.80
2018-09-19T07:37:14.728Z,28.30
2018-09-19T07:39:43.353Z,28.50
2018-09-19T07:42:11.937Z,28.90
2018-09-19T07:44:40.554Z,29.20
2018-09-19T07:47:09.125Z,29.60
2018-09-19T07:49:37.724Z,29.90
2018-09-19T07:52:06.325Z,30.30
2018-09-19T07:54:34.975Z,30.50
2018-09-19T07:57:03.564Z,30.80
2018-09-19T07:59:32.165Z,31.30
2018-09-19T08:02:00.748Z,31.70
2018-09-19T08:04:29.377Z,32.10
2018-09-19T08:06:57.987Z,32.60
2018-09-19T08:09:26.602Z,32.80
2018-09-19T08:11:55.212Z,32.80
2018-09-19T08:14:25.967Z,33.20
2018-09-19T08:16:58.826Z,33.40
2018-09-19T08:19:33.931Z,33.80
2018-09-19T08:22:03.974Z,34.30
2018-09-19T08:24:37.151Z,34.80
2018-09-19T08:27:12.012Z,35.20
2018-09-19T08:29:45.201Z,35.30
2018-09-19T08:32:15.907Z,35.40
2018-09-19T08:34:44.552Z,35.70
2018-09-19T08:37:13.161Z,35.90
2018-09-19T08:39:41.773Z,36.30
2018-09-19T08:42:10.431Z,36.60
2018-09-19T08:44:39.029Z,36.90
2018-09-19T08:47:07.664Z,37.00
2018-09-19T08:49:36.274Z,37.20
2018-09-19T08:52:04.882Z,37.50
2018-09-19T08:54:33.473Z,37.40
2018-09-19T08:57:02.115Z,37.90
2018-09-19T08:59:30.670Z,37.30
2018-09-19T09:01:59.244Z,37.00
2018-09-19T09:04:27.816Z,37.40
2018-09-19T09:07:01.540Z,37.70
2018-09-19T09:09:30.161Z,38.10
2018-09-19T09:11:58.771Z,38.30
2018-09-19T09:14:27.370Z,38.40
2018-09-19T09:16:55.953Z,38.80
2018-09-19T09:19:24.520Z,38.90
2018-09-19T09:21:53.149Z,39.10
2018-09-19T09:24:21.736Z,39.10
2018-09-19T09:26:50.384Z,39.30
2018-09-19T09:29:18.888Z,39.40
2018-09-19T09:31:47.483Z,39.80
2018-09-19T09:34:16.137Z,39.60
2018-09-19T09:36:44.704Z,39.50
2018-09-19T09:39:13.352Z,39.80
2018-09-19T09:41:46.255Z,39.80
2018-09-19T09:44:14.915Z,40.00
2018-09-19T09:46:44.888Z,40.10
2018-09-19T09:49:14.258Z,40.30
2018-09-19T09:51:43.008Z,40.00
2018-09-19T09:54:12.503Z,40.30
2018-09-19T09:56:41.191Z,40.30
2018-09-19T09:59:09.770Z,40.10
2018-09-19T10:01:39.030Z,39.70
2018-09-19T10:04:07.837Z,39.80
2018-09-19T10:06:37.102Z,39.40
2018-09-19T10:09:08.205Z,38.80
2018-09-19T10:11:41.410Z,38.40
2018-09-19T10:14:11.142Z,37.70
2018-09-19T10:16:39.821Z,36.90
2018-09-19T10:19:08.392Z,37.00
2018-09-19T10:21:37.018Z,36.90
2018-09-19T10:24:05.628Z,37.00
2018-09-19T10:26:34.272Z,37.20
2018-09-19T10:29:02.840Z,37.60
2018-09-19T10:31:31.429Z,37.20
2018-09-19T10:34:00.937Z,37.90
2018-09-19T10:36:29.510Z,38.20
2018-09-19T10:38:58.154Z,38.70
2018-09-19T10:41:26.722Z,38.60
2018-09-19T10:43:55.324Z,38.40
2018-09-19T10:46:23.889Z,38.20
2018-09-19T10:48:52.504Z,38.40
2018-09-19T10:51:21.077Z,38.70
2018-09-19T10:53:49.664Z,38.80
2018-09-19T10:56:18.236Z,38.40
2018-09-19T10:58:46.841Z,38.50
2018-09-19T11:01:15.417Z,37.50
2018-09-19T11:03:44.009Z,36.50
2018-09-19T11:06:13.146Z,36.90
2018-09-19T11:08:42.028Z,36.90
2018-09-19T11:11:10.644Z,36.30
2018-09-19T11:13:39.250Z,35.70
2018-09-19T11:16:07.845Z,35.60
2018-09-19T11:18:36.446Z,35.50
2018-09-19T11:21:11.441Z,35.60
2018-09-19T11:23:40.275Z,35.40
2018-09-19T11:26:08.873Z,35.30
2018-09-19T11:28:37.468Z,35.10
2018-09-19T11:31:06.055Z,35.10
2018-09-19T11:33:34.679Z,35.00
2018-09-19T11:36:03.311Z,34.70
2018-09-19T11:38:31.938Z,34.70
2018-09-19T11:41:00.535Z,34.60
2018-09-19T11:43:29.135Z,34.40
2018-09-19T11:45:58.306Z,34.20
2018-09-19T11:48:27.189Z,34.00
2018-09-19T11:50:55.872Z,33.90
2018-09-19T11:53:27.082Z,33.90
2018-09-19T11:55:56.545Z,33.70
2018-09-19T11:58:25.118Z,33.50
2018-09-19T12:00:53.714Z,33.30
2018-09-19T12:03:22.301Z,33.20
2018-09-19T12:05:50.976Z,33.20
2018-09-19T12:08:20.078Z,33.30
2018-09-19T12:10:48.680Z,33.20
2018-09-19T12:13:17.260Z,32.80
2018-09-19T12:15:45.843Z,32.50
2018-09-19T12:18:14.404Z,32.60
2018-09-19T12:20:43.261Z,32.70
2018-09-19T12:23:11.884Z,32.60
2018-09-19T12:25:40.489Z,32.70
2018-09-19T12:28:09.316Z,32.70
2018-09-19T12:30:37.920Z,32.60
2018-09-19T12:33:06.840Z,32.30
2018-09-19T12:35:35.433Z,32.20
2018-09-19T12:38:04.015Z,32.20
2018-09-19T12:40:32.955Z,32.20
2018-09-19T12:43:01.526Z,32.10
2018-09-19T12:45:30.224Z,32.00
2018-09-19T12:47:58.797Z,32.00
2018-09-19T12:50:27.373Z,31.90
2018-09-19T12:52:55.947Z,31.90
2018-09-19T12:55:24.545Z,31.70
2018-09-19T12:57:53.125Z,31.70
2018-09-19T13:00:21.730Z,31.70
2018-09-19T13:02:50.306Z,31.70
2018-09-19T13:05:18.905Z,31.70
2018-09-19T13:07:47.475Z,31.40
2018-09-19T13:10:16.068Z,31.40
2018-09-19T13:12:44.629Z,31.40
2018-09-19T13:15:13.212Z,31.60
2018-09-19T13:17:41.777Z,31.60
2018-09-19T13:20:11.249Z,31.50
2018-09-19T13:22:39.813Z,31.40
2018-09-19T13:25:08.494Z,31.60
2018-09-19T13:27:37.080Z,31.40
2018-09-19T13:30:05.832Z,31.30
2018-09-19T13:32:34.440Z,31.20
2018-09-19T13:35:03.103Z,31.30
2018-09-19T13:37:31.709Z,31.20
2018-09-19T13:40:00.356Z,31.30
2018-09-19T13:42:30.640Z,31.30
2018-09-19T13:44:59.204Z,31.20
2018-09-19T13:47:27.825Z,31.20
2018-09-19T13:50:00.881Z,31.10
2018-09-19T13:52:29.480Z,31.10
2018-09-19T13:54:58.058Z,31.20
2018-09-19T13:57:26.659Z,31.10
2018-09-19T13:59:55.228Z,31.10
2018-09-19T14:02:23.821Z,31.00
2018-09-19T14:04:52.532Z,30.90
2018-09-19T14:07:21.132Z,30.90
2018-09-19T14:09:49.699Z,31.00
2018-09-19T14:12:18.353Z,31.00
2018-09-19T14:14:46.904Z,31.00
2018-09-19T14:17:15.514Z,30.90
2018-09-19T14:19:44.077Z,30.90
2018-09-19T14:22:12.690Z,30.80
2018-09-19T14:24:41.252Z,30.80
2018-09-19T14:27:09.848Z,30.70
2018-09-19T14:29:38.453Z,30.70
2018-09-19T14:32:07.078Z,30.70
2018-09-19T14:34:35.639Z,30.70
2018-09-19T14:37:04.268Z,30.70
2018-09-19T14:39:32.864Z,30.60
2018-09-19T14:42:01.453Z,30.50
2018-09-19T14:44:30.045Z,30.50
2018-09-19T14:46:58.650Z,30.50
2018-09-19T14:49:27.250Z,30.40
2018-09-19T14:51:55.879Z,30.40
2018-09-19T14:54:24.497Z,30.40
2018-09-19T14:56:53.187Z,30.40
2018-09-19T14:59:22.393Z,30.30
2018-09-19T15:01:51.113Z,30.30
2018-09-19T15:04:19.679Z,30.20
2018-09-19T15:06:48.278Z,30.20
2018-09-19T15:09:16.839Z,30.10
2018-09-19T15:11:45.438Z,30.00
2018-09-19T15:14:14.069Z,30.10
2018-09-19T15:16:42.695Z,30.10
2018-09-19T15:19:11.274Z,30.00
2018-09-19T15:21:39.861Z,30.00
2018-09-19T15:24:08.604Z,30.00
2018-09-19T15:26:37.192Z,29.90
2018-09-19T15:29:05.776Z,30.00
2018-09-19T15:31:34.369Z,29.90
2018-09-19T15:34:02.943Z,29.80
2018-09-19T15:36:31.517Z,29.70
2018-09-19T15:39:00.134Z,29.60
2018-09-19T15:41:28.704Z,29.60
2018-09-19T15:43:57.289Z,29.60
2018-09-19T15:46:25.864Z,29.50
2018-09-19T15:48:54.460Z,29.50
2018-09-19T15:51:23.036Z,29.50
2018-09-19T15:53:51.633Z,29.40
2018-09-19T15:56:20.207Z,29.50
2018-09-19T15:58:48.800Z,29.40
2018-09-19T16:01:17.373Z,29.40
2018-09-19T16:03:45.984Z,29.40
2018-09-19T16:06:14.617Z,29.30
2018-09-19T16:08:43.181Z,29.10
2018-09-19T16:11:11.761Z,29.00
2018-09-19T16:13:40.357Z,29.00
2018-09-19T16:16:09.316Z,29.00
2018-09-19T16:18:37.899Z,29.00
2018-09-19T16:21:06.567Z,28.90
2018-09-19T16:23:35.109Z,28.90
2018-09-19T16:26:03.692Z,28.90
2018-09-19T16:28:32.325Z,28.80
2018-09-19T16:31:01.117Z,28.70
2018-09-19T16:33:29.704Z,28.70
2018-09-19T16:35:58.273Z,28.60
2018-09-19T16:38:28.533Z,28.50
2018-09-19T16:40:57.174Z,28.30
2018-09-19T16:43:25.774Z,28.10
2018-09-19T16:45:54.984Z,28.00
2018-09-19T16:48:23.558Z,27.80
2018-09-19T16:50:52.123Z,27.60
2018-09-19T16:53:20.716Z,27.30
2018-09-19T16:55:49.297Z,27.10
2018-09-19T16:58:18.365Z,26.70
2018-09-19T17:00:46.962Z,26.60
2018-09-19T17:03:15.560Z,26.50
2018-09-19T17:05:44.196Z,26.30
2018-09-19T17:08:12.944Z,26.10
2018-09-19T17:10:41.858Z,25.90
2018-09-19T17:13:11.395Z,25.80
2018-09-19T17:15:40.043Z,25.70
2018-09-19T17:18:08.720Z,25.50
2018-09-19T17:20:37.317Z,25.50
2018-09-19T17:23:05.923Z,25.30
2018-09-19T17:25:34.597Z,25.10
2018-09-19T17:28:03.161Z,25.10
2018-09-19T17:30:35.158Z,25.00
2018-09-19T17:33:03.805Z,24.90
2018-09-19T17:35:36.123Z,24.70
2018-09-19T17:38:04.858Z,24.60
2018-09-19T17:40:33.903Z,24.60
2018-09-19T17:43:02.477Z,24.60
2018-09-19T17:45:31.386Z,24.50
2018-09-19T17:48:00.017Z,24.40
2018-09-19T17:50:28.630Z,24.20
2018-09-19T17:52:57.221Z,24.10
2018-09-19T17:55:26.006Z,23.90
2018-09-19T17:57:54.595Z,23.80
2018-09-19T18:00:23.199Z,23.70
2018-09-19T18:02:51.795Z,23.60
2018-09-19T18:05:20.413Z,23.40
2018-09-19T18:07:49.000Z,23.40
2018-09-19T18:10:18.308Z,23.30
2018-09-19T18:12:46.932Z,23.20
2018-09-19T18:15:15.525Z,23.30
2018-09-19T18:17:44.108Z,23.10
2018-09-19T18:20:12.734Z,23.00
2018-09-19T18:22:41.374Z,22.90
2018-09-19T18:25:09.973Z,22.80
2018-09-19T18:27:39.308Z,22.80
2018-09-19T18:30:08.014Z,22.60
2018-09-19T18:32:36.606Z,22.50
2018-09-19T18:35:05.244Z,22.50
2018-09-19T18:37:33.809Z,22.50
2018-09-19T18:40:02.403Z,22.30
2018-09-19T18:42:30.997Z,22.30
2018-09-19T18:44:59.703Z,22.30
2018-09-19T18:47:28.338Z,22.10
2018-09-19T18:49:57.283Z,22.00
2018-09-19T18:52:26.957Z,22.00
2018-09-19T18:54:55.654Z,21.90
2018-09-19T18:57:24.305Z,21.90
2018-09-19T18:59:52.890Z,21.90
2018-09-19T19:02:21.485Z,21.80
2018-09-19T19:04:50.118Z,21.80
2018-09-19T19:07:18.736Z,21.70
2018-09-19T19:09:47.349Z,21.70
2018-09-19T19:12:15.985Z,21.60
2018-09-19T19:14:44.587Z,21.50
2018-09-19T19:17:13.200Z,21.50
2018-09-19T19:19:41.790Z,21.40
2018-09-19T19:22:11.083Z,21.30
2018-09-19T19:24:39.686Z,21.40
2018-09-19T19:27:08.413Z,21.20
2018-09-19T19:29:37.149Z,21.10
2018-09-19T19:32:05.814Z,21.10
2018-09-19T19:34:34.400Z,21.10
2018-09-19T19:37:03.116Z,20.90
2018-09-19T19:39:31.798Z,21.00
2018-09-19T19:42:00.411Z,20.80
2018-09-19T19:44:29.257Z,20.80
2018-09-19T19:46:57.944Z,20.70
2018-09-19T19:49:27.637Z,20.70
2018-09-19T19:51:56.249Z,20.70
2018-09-19T19:54:24.873Z,20.70
2018-09-19T19:56:53.530Z,20.70
2018-09-19T19:59:22.155Z,20.60
2018-09-19T20:01:50.780Z,20.50
2018-09-19T20:04:19.365Z,20.40
2018-09-19T20:06:48.001Z,20.40
2018-09-19T20:09:16.617Z,20.40
2018-09-19T20:11:45.301Z,20.30
2018-09-19T20:14:13.918Z,20.30
2018-09-19T20:16:42.533Z,20.30
2018-09-19T20:19:11.174Z,20.20
2018-09-19T20:21:39.802Z,20.20
2018-09-19T20:24:08.400Z,20.10
2018-09-19T20:26:37.015Z,20.00
2018-09-19T20:29:05.666Z,20.00
2018-09-19T20:31:34.271Z,20.00
2018-09-19T20:34:02.928Z,19.90
2018-09-19T20:36:31.514Z,19.90
2018-09-19T20:39:00.153Z,19.90
2018-09-19T20:41:28.760Z,19.80
2018-09-19T20:43:57.400Z,19.80
2018-09-19T20:46:25.977Z,19.70
2018-09-19T20:48:54.581Z,19.70
2018-09-19T20:51:23.179Z,19.80
2018-09-19T20:53:51.846Z,19.80
2018-09-19T20:56:20.420Z,19.70
2018-09-19T20:58:49.051Z,19.70
2018-09-19T21:01:17.736Z,19.60
2018-09-19T21:03:46.353Z,19.60
2018-09-19T21:06:14.961Z,19.50
2018-09-19T21:08:43.593Z,19.50
2018-09-19T21:11:12.209Z,19.50
2018-09-19T21:13:41.080Z,19.50
2018-09-19T21:16:09.681Z,19.40
2018-09-19T21:18:38.400Z,19.50
2018-09-19T21:21:07.064Z,19.40
2018-09-19T21:23:35.674Z,19.40
2018-09-19T21:26:04.341Z,19.40
2018-09-19T21:28:33.037Z,19.40
2018-09-19T21:31:01.605Z,19.40
2018-09-19T21:33:30.469Z,19.40
2018-09-19T21:35:59.061Z,19.30
2018-09-19T21:38:27.752Z,19.20
2018-09-19T21:40:59.086Z,19.20
2018-09-19T21:43:30.511Z,19.20
2018-09-19T21:46:00.619Z,19.20
2018-09-19T21:48:29.751Z,19.10
2018-09-19T21:50:58.360Z,19.20
2018-09-19T21:53:27.213Z,19.10
2018-09-19T21:55:56.064Z,19.00
2018-09-19T21:58:24.645Z,19.00
2018-09-19T22:00:58.512Z,19.00
2018-09-19T22:03:27.273Z,18.90
2018-09-19T22:05:55.918Z,18.80
2018-09-19T22:08:24.487Z,18.80
2018-09-19T22:10:53.318Z,18.90
2018-09-19T22:13:21.896Z,19.00
2018-09-19T22:15:50.569Z,19.00
2018-09-19T22:18:19.189Z,18.90
2018-09-19T22:20:47.805Z,18.90
2018-09-19T22:23:16.409Z,18.80
2018-09-19T22:25:45.084Z,18.90
2018-09-19T22:28:13.682Z,18.90
2018-09-19T22:30:42.277Z,18.80
2018-09-19T22:33:10.878Z,18.80
2018-09-19T22:35:39.600Z,18.80
2018-09-19T22:38:08.273Z,18.70
2018-09-19T22:40:36.902Z,18.70
2018-09-19T22:43:05.909Z,18.70
2018-09-19T22:45:34.512Z,18.70
2018-09-19T22:48:03.109Z,18.60
2018-09-19T22:50:32.034Z,18.60
2018-09-19T22:53:00.621Z,18.60
2018-09-19T22:55:29.232Z,18.50
2018-09-19T22:57:57.808Z,18.50
2018-09-19T23:00:26.439Z,18.60
2018-09-19T23:02:55.052Z,18.60
2018-09-19T23:05:23.782Z,18.50
2018-09-19T23:07:52.351Z,18.50
2018-09-19T23:10:20.985Z,18.40
2018-09-19T23:12:49.602Z,18.50
2018-09-19T23:15:18.213Z,18.40
2018-09-19T23:17:46.800Z,18.40
2018-09-19T23:20:15.418Z,18.40
2018-09-19T23:22:44.135Z,18.40
2018-09-19T23:25:12.969Z,18.40
2018-09-19T23:27:41.579Z,18.40
2018-09-19T23:30:10.250Z,18.30
2018-09-19T23:32:38.876Z,18.40
2018-09-19T23:35:07.539Z,18.30
2018-09-19T23:37:36.274Z,18.30
2018-09-19T23:40:04.894Z,18.20
2018-09-19T23:42:33.532Z,18.20
2018-09-19T23:45:02.119Z,18.20
2018-09-19T23:47:30.708Z,18.10
2018-09-19T23:49:59.333Z,18.10
2018-09-19T23:52:27.930Z,18.20
2018-09-19T23:54:56.526Z,18.10
2018-09-19T23:57:25.132Z,18.10
2018-09-19T23:59:53.748Z,18.20
